Aérodrome :
LOGIN :

S'inscrire | Disclaimer

   EN    FR    IT 

 










Légende :    VFR   VFR Marginal   IFR   IFR Intensif   IFR Très Intensif
Visi : 
Plafond : 
>= 8 km
>= 3000ft
5 à 8 km
1000 à 3000 ft
1500m à 5 km
500 à 1000 ft
800 à 1500m
200 à 500 ft
< 800m
< 200 ft
Symboles :   Orages  Brouillard  Fortes neiges  Fortes précipitations  Vent > 20 kt
SIGMETs :   Divers  Orages  Givrage  Turbulence  Onde Orograph.  Cendres Volcan.






- Altitude de l'aérodrome : 172 ft
- Code IATA : LPI


ESSL - Saab

DERNIER METAR :
  • 301020Z 03013KT 360V060 CAVOK 03/M13 Q1025 R29/09//95

METARs EXPIRÉS :
  • 300950Z 02011KT CAVOK 03/M13 Q1025 R29/09//95
  • 300920Z 02010KT CAVOK 02/M10 Q1025 R29/09//95
  • 300850Z 02011KT 340V050 9999 FEW042 02/M09 Q1025 R29/09//95
  • 300820Z 03011KT 360V060 9999 FEW038 01/M08 Q1025 R29/09//95
  • 300750Z 03013KT CAVOK 01/M08 Q1024 R29/09//95

TAF TAF ESSL
Valide du 30 à 09h jusqu'au 30 à 18h UTC


300830Z 3009/3018 01011G21KT CAVOK



MET'MAP, la Météo Aéronautique d'un coup d'oeil ! - Copyright ORBIFLY Décembre 2007 - Disclaimer

ORBIFLY MET'MAP TEAM :

Programmation & Développement : Alexandra Zaïnal
Sur une idée originale de : Baudouin d'Aumeries
Assistance à la programmation : Marc-Olivier Méhu
Soutien technique & logistique : Manuel Goepfert

Contact : metmap@orbifly.com




SOURCES & CREDITS :

   NOAA